sensor_id;sensor_type;location;lat;lon;timestamp;noise_LAeq;noise_LA_min;noise_LA_max;noise_LA01;noise_LA95
66589;Laerm;53447;49.272;11.070;2023-02-24T00:01:15;39.78;31.94;50.15;;
66589;Laerm;53447;49.272;11.070;2023-02-24T00:03:49;39.51;32.81;45.37;;
66589;Laerm;53447;49.272;11.070;2023-02-24T00:06:14;38.27;32.81;41.32;;
66589;Laerm;53447;49.272;11.070;2023-02-24T00:08:40;38.22;31.94;41.15;;
66589;Laerm;53447;49.272;11.070;2023-02-24T00:11:12;38.26;31.94;41.48;;
66589;Laerm;53447;49.272;11.070;2023-02-24T00:13:41;39.20;33.81;42.49;;
66589;Laerm;53447;49.272;11.070;2023-02-24T00:16:12;39.16;34.60;41.64;;
66589;Laerm;53447;49.272;11.070;2023-02-24T00:18:38;40.91;36.20;43.67;;
66589;Laerm;53447;49.272;11.070;2023-02-24T00:21:04;40.59;35.62;43.47;;
66589;Laerm;53447;49.272;11.070;2023-02-24T00:23:32;40.59;35.19;44.25;;
66589;Laerm;53447;49.272;11.070;2023-02-24T00:25:58;38.64;33.19;41.32;;
66589;Laerm;53447;49.272;11.070;2023-02-24T00:28:24;38.60;33.54;41.15;;
66589;Laerm;53447;49.272;11.070;2023-02-24T00:30:49;38.38;33.19;41.48;;
66589;Laerm;53447;49.272;11.070;2023-02-24T00:33:14;39.01;34.16;43.26;;
66589;Laerm;53447;49.272;11.070;2023-02-24T00:35:39;39.22;34.16;42.08;;
66589;Laerm;53447;49.272;11.070;2023-02-24T00:38:05;39.34;34.70;43.80;;
66589;Laerm;53447;49.272;11.070;2023-02-24T00:40:30;39.16;34.16;42.36;;
66589;Laerm;53447;49.272;11.070;2023-02-24T00:42:56;40.08;35.82;42.40;;
66589;Laerm;53447;49.272;11.070;2023-02-24T00:45:21;39.51;35.62;42.04;;
66589;Laerm;53447;49.272;11.070;2023-02-24T00:47:46;39.56;35.41;41.74;;
66589;Laerm;53447;49.272;11.070;2023-02-24T00:50:11;39.79;35.19;42.13;;
66589;Laerm;53447;49.272;11.070;2023-02-24T00:52:38;39.66;34.95;42.36;;
66589;Laerm;53447;49.272;11.070;2023-02-24T00:55:03;39.48;34.70;42.44;;
66589;Laerm;53447;49.272;11.070;2023-02-24T00:57:38;39.50;35.41;46.75;;
66589;Laerm;53447;49.272;11.070;2023-02-24T01:00:05;39.00;33.86;45.39;;
66589;Laerm;53447;49.272;11.070;2023-02-24T01:02:37;38.84;33.54;41.48;;
66589;Laerm;53447;49.272;11.070;2023-02-24T01:05:03;38.66;32.81;41.32;;
66589;Laerm;53447;49.272;11.070;2023-02-24T01:07:30;38.49;33.19;41.43;;
66589;Laerm;53447;49.272;11.070;2023-02-24T01:09:55;38.37;33.51;44.46;;
66589;Laerm;53447;49.272;11.070;2023-02-24T01:12:21;39.14;33.19;44.70;;
66589;Laerm;53447;49.272;11.070;2023-02-24T01:15:06;41.64;32.81;57.02;;
66589;Laerm;53447;49.272;11.070;2023-02-24T01:17:34;40.19;33.54;43.19;;
66589;Laerm;53447;49.272;11.070;2023-02-24T01:20:02;41.41;37.71;43.54;;
66589;Laerm;53447;49.272;11.070;2023-02-24T01:22:40;47.27;34.70;66.11;;
66589;Laerm;53447;49.272;11.070;2023-02-24T01:25:05;39.92;33.86;45.14;;
66589;Laerm;53447;49.272;11.070;2023-02-24T01:27:33;39.46;31.94;45.72;;
66589;Laerm;53447;49.272;11.070;2023-02-24T01:30:01;38.29;32.84;41.32;;
66589;Laerm;53447;49.272;11.070;2023-02-24T01:32:26;38.37;32.40;41.79;;
66589;Laerm;53447;49.272;11.070;2023-02-24T01:34:55;38.41;33.19;41.43;;
66589;Laerm;53447;49.272;11.070;2023-02-24T01:37:21;38.45;33.86;41.54;;
66589;Laerm;53447;49.272;11.070;2023-02-24T01:39:48;38.21;32.81;41.26;;
66589;Laerm;53447;49.272;11.070;2023-02-24T01:42:15;38.22;33.19;41.32;;
66589;Laerm;53447;49.272;11.070;2023-02-24T01:47:07;38.82;34.09;41.84;;
66589;Laerm;53447;49.272;11.070;2023-02-24T01:49:33;41.27;33.19;49.27;;
66589;Laerm;53447;49.272;11.070;2023-02-24T01:52:03;38.52;32.40;41.48;;
66589;Laerm;53447;49.272;11.070;2023-02-24T01:54:38;40.06;34.70;49.03;;
66589;Laerm;53447;49.272;11.070;2023-02-24T01:57:07;42.60;35.82;50.32;;
66589;Laerm;53447;49.272;11.070;2023-02-24T01:59:33;38.63;33.86;49.91;;
66589;Laerm;53447;49.272;11.070;2023-02-24T02:02:03;38.64;33.81;41.43;;
66589;Laerm;53447;49.272;11.070;2023-02-24T02:04:41;40.37;35.41;43.67;;
66589;Laerm;53447;49.272;11.070;2023-02-24T02:07:10;40.32;33.86;45.76;;
66589;Laerm;53447;49.272;11.070;2023-02-24T02:09:37;38.76;34.16;41.64;;
66589;Laerm;53447;49.272;11.070;2023-02-24T02:12:02;38.57;32.81;42.22;;
66589;Laerm;53447;49.272;11.070;2023-02-24T02:14:28;39.69;33.54;43.26;;
66589;Laerm;53447;49.272;11.070;2023-02-24T02:17:11;41.44;37.31;43.30;;
66589;Laerm;53447;49.272;11.070;2023-02-24T02:37:39;38.22;33.19;41.32;;
66589;Laerm;53447;49.272;11.070;2023-02-24T02:45:23;39.69;32.81;56.02;;
66589;Laerm;53447;49.272;11.070;2023-02-24T02:53:07;41.41;37.45;43.26;;
66589;Laerm;53447;49.272;11.070;2023-02-24T02:55:46;40.21;33.54;43.23;;
66589;Laerm;53447;49.272;11.070;2023-02-24T02:58:13;38.84;33.86;52.81;;
66589;Laerm;53447;49.272;11.070;2023-02-24T03:00:44;43.94;36.87;58.47;;
66589;Laerm;53447;49.272;11.070;2023-02-24T03:03:23;44.89;39.88;63.19;;
66589;Laerm;53447;49.272;11.070;2023-02-24T03:05:54;42.24;37.58;57.50;;
66589;Laerm;53447;49.272;11.070;2023-02-24T03:08:25;39.93;35.82;48.10;;
66589;Laerm;53447;49.272;11.070;2023-02-24T03:10:52;38.95;33.54;46.62;;
66589;Laerm;53447;49.272;11.070;2023-02-24T03:13:22;38.37;33.54;41.38;;
66589;Laerm;53447;49.272;11.070;2023-02-24T03:15:50;38.40;32.81;44.51;;
66589;Laerm;53447;49.272;11.070;2023-02-24T03:18:38;38.40;31.43;41.87;;
66589;Laerm;53447;49.272;11.070;2023-02-24T03:21:09;39.70;33.86;43.61;;
66589;Laerm;53447;49.272;11.070;2023-02-24T03:23:38;38.92;33.19;41.84;;
66589;Laerm;53447;49.272;11.070;2023-02-24T03:28:38;40.39;33.86;44.65;;
66589;Laerm;53447;49.272;11.070;2023-02-24T03:31:13;39.50;33.54;43.57;;
66589;Laerm;53447;49.272;11.070;2023-02-24T03:33:44;38.55;33.19;41.43;;
66589;Laerm;53447;49.272;11.070;2023-02-24T03:36:13;38.73;32.40;41.94;;
66589;Laerm;53447;49.272;11.070;2023-02-24T03:38:39;41.24;34.44;45.60;;
66589;Laerm;53447;49.272;11.070;2023-02-24T03:41:05;41.41;37.31;45.80;;
66589;Laerm;53447;49.272;11.070;2023-02-24T03:43:35;40.23;32.81;43.23;;
66589;Laerm;53447;49.272;11.070;2023-02-24T03:46:03;40.98;34.09;46.92;;
66589;Laerm;53447;49.272;11.070;2023-02-24T03:48:28;39.51;33.54;42.77;;
66589;Laerm;53447;49.272;11.070;2023-02-24T03:50:54;38.26;32.40;41.79;;
66589;Laerm;53447;49.272;11.070;2023-02-24T03:58:49;42.02;36.87;50.16;;
66589;Laerm;53447;49.272;11.070;2023-02-24T04:01:54;39.30;33.19;43.47;;
66589;Laerm;53447;49.272;11.070;2023-02-24T04:04:04;41.03;34.44;46.09;;
66589;Laerm;53447;49.272;11.070;2023-02-24T04:11:27;41.67;37.84;44.33;;
66589;Laerm;53447;49.272;11.070;2023-02-24T04:14:01;39.19;33.54;45.78;;
66589;Laerm;53447;49.272;11.070;2023-02-24T04:16:47;39.01;33.19;41.94;;
66589;Laerm;53447;49.272;11.070;2023-02-24T04:19:15;39.23;34.16;42.08;;
66589;Laerm;53447;49.272;11.070;2023-02-24T04:21:42;39.92;35.27;44.41;;
66589;Laerm;53447;49.272;11.070;2023-02-24T04:24:09;41.45;36.02;45.34;;
66589;Laerm;53447;49.272;11.070;2023-02-24T04:26:40;45.04;39.03;60.56;;
66589;Laerm;53447;49.272;11.070;2023-02-24T04:29:07;42.11;39.12;50.65;;
66589;Laerm;53447;49.272;11.070;2023-02-24T04:31:32;42.10;37.84;52.25;;
66589;Laerm;53447;49.272;11.070;2023-02-24T04:33:57;43.70;39.12;53.59;;
66589;Laerm;53447;49.272;11.070;2023-02-24T04:36:24;40.95;36.20;45.96;;
66589;Laerm;53447;49.272;11.070;2023-02-24T04:38:49;40.56;35.19;44.52;;
66589;Laerm;53447;49.272;11.070;2023-02-24T04:41:14;41.12;36.55;43.73;;
66589;Laerm;53447;49.272;11.070;2023-02-24T04:43:45;39.96;35.82;46.51;;
66589;Laerm;53447;49.272;11.070;2023-02-24T04:46:10;45.87;37.02;60.98;;
66589;Laerm;53447;49.272;11.070;2023-02-24T04:48:37;41.79;38.42;46.46;;
66589;Laerm;53447;49.272;11.070;2023-02-24T04:51:03;40.72;35.19;56.23;;
66589;Laerm;53447;49.272;11.070;2023-02-24T04:53:30;39.31;33.86;42.13;;
66589;Laerm;53447;49.272;11.070;2023-02-24T04:55:55;39.88;35.82;43.15;;
66589;Laerm;53447;49.272;11.070;2023-02-24T04:58:21;40.44;36.02;43.26;;
66589;Laerm;53447;49.272;11.070;2023-02-24T05:00:48;43.63;34.95;53.82;;
66589;Laerm;53447;49.272;11.070;2023-02-24T05:03:16;52.83;38.08;72.01;;
66589;Laerm;53447;49.272;11.070;2023-02-24T05:05:50;43.05;37.96;62.55;;
66589;Laerm;53447;49.272;11.070;2023-02-24T05:08:16;41.40;35.82;52.62;;
66589;Laerm;53447;49.272;11.070;2023-02-24T05:10:42;40.42;35.41;54.81;;
66589;Laerm;53447;49.272;11.070;2023-02-24T05:13:10;39.88;34.95;46.76;;
66589;Laerm;53447;49.272;11.070;2023-02-24T05:15:37;40.75;37.02;50.91;;
66589;Laerm;53447;49.272;11.070;2023-02-24T05:18:04;42.08;35.82;57.73;;
66589;Laerm;53447;49.272;11.070;2023-02-24T05:20:35;44.58;36.02;61.73;;
66589;Laerm;53447;49.272;11.070;2023-02-24T05:23:30;47.95;37.71;61.45;;
66589;Laerm;53447;49.272;11.070;2023-02-24T05:25:56;46.53;37.96;61.85;;
66589;Laerm;53447;49.272;11.070;2023-02-24T05:28:22;49.68;37.45;67.02;;
66589;Laerm;53447;49.272;11.070;2023-02-24T05:30:48;44.81;36.87;63.41;;
66589;Laerm;53447;49.272;11.070;2023-02-24T05:33:13;44.72;35.41;63.06;;
66589;Laerm;53447;49.272;11.070;2023-02-24T05:35:38;50.33;37.02;68.75;;
66589;Laerm;53447;49.272;11.070;2023-02-24T05:38:04;40.51;36.02;52.94;;
66589;Laerm;53447;49.272;11.070;2023-02-24T05:40:32;41.64;36.02;60.93;;
66589;Laerm;53447;49.272;11.070;2023-02-24T05:42:57;51.03;38.31;69.17;;
66589;Laerm;53447;49.272;11.070;2023-02-24T05:45:28;43.40;38.20;57.84;;
66589;Laerm;53447;49.272;11.070;2023-02-24T05:47:54;51.39;37.31;70.61;;
66589;Laerm;53447;49.272;11.070;2023-02-24T05:50:19;51.53;37.37;63.92;;
66589;Laerm;53447;49.272;11.070;2023-02-24T05:52:50;53.18;40.91;65.45;;
66589;Laerm;53447;49.272;11.070;2023-02-24T05:55:15;54.53;38.53;70.44;;
66589;Laerm;53447;49.272;11.070;2023-02-24T05:57:40;51.29;38.63;64.09;;
66589;Laerm;53447;49.272;11.070;2023-02-24T06:00:06;57.17;38.93;73.35;;
66589;Laerm;53447;49.272;11.070;2023-02-24T06:02:39;54.65;38.83;67.26;;
66589;Laerm;53447;49.272;11.070;2023-02-24T06:05:07;54.32;39.48;67.38;;
66589;Laerm;53447;49.272;11.070;2023-02-24T06:07:32;54.63;41.43;67.07;;
66589;Laerm;53447;49.272;11.070;2023-02-24T06:09:58;52.67;38.93;65.76;;
66589;Laerm;53447;49.272;11.070;2023-02-24T06:12:33;55.76;39.21;68.90;;
66589;Laerm;53447;49.272;11.070;2023-02-24T06:15:00;51.79;39.21;66.29;;
66589;Laerm;53447;49.272;11.070;2023-02-24T06:17:26;50.80;38.73;63.64;;
66589;Laerm;53447;49.272;11.070;2023-02-24T06:19:52;53.37;38.73;71.19;;
66589;Laerm;53447;49.272;11.070;2023-02-24T06:22:19;54.16;37.71;69.03;;
66589;Laerm;53447;49.272;11.070;2023-02-24T06:24:45;52.84;37.58;69.85;;
66589;Laerm;53447;49.272;11.070;2023-02-24T06:27:11;54.38;40.72;66.66;;
66589;Laerm;53447;49.272;11.070;2023-02-24T06:29:41;50.86;38.63;68.46;;
66589;Laerm;53447;49.272;11.070;2023-02-24T06:32:07;55.22;39.21;73.99;;
66589;Laerm;53447;49.272;11.070;2023-02-24T06:34:41;51.19;37.02;63.96;;
66589;Laerm;53447;49.272;11.070;2023-02-24T06:37:07;50.61;38.31;63.26;;
66589;Laerm;53447;49.272;11.070;2023-02-24T06:39:34;54.09;39.12;69.64;;
66589;Laerm;53447;49.272;11.070;2023-02-24T06:42:00;62.94;38.42;83.79;;
66589;Laerm;53447;49.272;11.070;2023-02-24T06:44:32;48.35;38.20;62.26;;
66589;Laerm;53447;49.272;11.070;2023-02-24T06:46:58;52.82;39.48;69.97;;
66589;Laerm;53447;49.272;11.070;2023-02-24T06:49:23;56.46;40.03;73.98;;
66589;Laerm;53447;49.272;11.070;2023-02-24T06:51:49;51.44;39.03;67.60;;
66589;Laerm;53447;49.272;11.070;2023-02-24T06:54:14;53.95;38.08;73.40;;
66589;Laerm;53447;49.272;11.070;2023-02-24T06:56:39;45.42;36.87;61.18;;
66589;Laerm;53447;49.272;11.070;2023-02-24T06:59:06;51.20;38.08;69.66;;
66589;Laerm;53447;49.272;11.070;2023-02-24T07:01:31;46.97;37.31;63.40;;
66589;Laerm;53447;49.272;11.070;2023-02-24T07:03:58;44.30;36.20;58.45;;
66589;Laerm;53447;49.272;11.070;2023-02-24T07:06:42;53.85;37.71;67.50;;
66589;Laerm;53447;49.272;11.070;2023-02-24T07:09:11;53.44;38.63;64.88;;
66589;Laerm;53447;49.272;11.070;2023-02-24T07:11:38;51.70;38.08;66.13;;
66589;Laerm;53447;49.272;11.070;2023-02-24T07:14:05;47.62;36.02;65.70;;
66589;Laerm;53447;49.272;11.070;2023-02-24T07:16:31;40.29;35.41;52.08;;
66589;Laerm;53447;49.272;11.070;2023-02-24T07:18:58;52.29;36.71;69.23;;
66589;Laerm;53447;49.272;11.070;2023-02-24T07:21:27;50.03;36.55;70.15;;
66589;Laerm;53447;49.272;11.070;2023-02-24T07:23:54;50.08;37.02;68.94;;
66589;Laerm;53447;49.272;11.070;2023-02-24T07:26:21;47.66;38.31;60.70;;
66589;Laerm;53447;49.272;11.070;2023-02-24T07:28:48;55.34;37.45;74.10;;
66589;Laerm;53447;49.272;11.070;2023-02-24T07:31:15;55.64;38.08;72.21;;
66589;Laerm;53447;49.272;11.070;2023-02-24T07:33:41;49.40;37.45;64.51;;
66589;Laerm;53447;49.272;11.070;2023-02-24T07:36:09;46.48;37.17;69.91;;
66589;Laerm;53447;49.272;11.070;2023-02-24T07:38:38;53.28;37.17;68.69;;
66589;Laerm;53447;49.272;11.070;2023-02-24T07:41:05;49.83;36.02;66.18;;
66589;Laerm;53447;49.272;11.070;2023-02-24T07:43:33;51.32;37.58;67.32;;
66589;Laerm;53447;49.272;11.070;2023-02-24T07:48:31;46.89;35.82;64.66;;
66589;Laerm;53447;49.272;11.070;2023-02-24T07:50:57;45.00;37.58;57.90;;
66589;Laerm;53447;49.272;11.070;2023-02-24T07:53:23;56.47;36.87;74.01;;
66589;Laerm;53447;49.272;11.070;2023-02-24T07:55:57;51.60;36.71;67.42;;
66589;Laerm;53447;49.272;11.070;2023-02-24T07:58:23;47.78;36.71;63.55;;
66589;Laerm;53447;49.272;11.070;2023-02-24T08:00:48;50.05;36.38;62.33;;
66589;Laerm;53447;49.272;11.070;2023-02-24T08:03:32;52.73;36.71;71.71;;
66589;Laerm;53447;49.272;11.070;2023-02-24T08:05:57;51.60;37.58;75.38;;
66589;Laerm;53447;49.272;11.070;2023-02-24T08:08:37;55.30;37.71;69.61;;
66589;Laerm;53447;49.272;11.070;2023-02-24T08:11:21;53.88;38.20;67.34;;
66589;Laerm;53447;49.272;11.070;2023-02-24T08:13:48;51.24;38.20;64.69;;
66589;Laerm;53447;49.272;11.070;2023-02-24T08:16:14;51.77;37.58;64.64;;
66589;Laerm;53447;49.272;11.070;2023-02-24T08:18:39;51.29;37.31;63.98;;
66589;Laerm;53447;49.272;11.070;2023-02-24T08:21:05;52.22;38.08;65.94;;
66589;Laerm;53447;49.272;11.070;2023-02-24T08:23:30;52.39;38.08;64.80;;
66589;Laerm;53447;49.272;11.070;2023-02-24T08:26:00;54.70;37.84;71.25;;
66589;Laerm;53447;49.272;11.070;2023-02-24T08:28:25;51.15;37.58;64.18;;
66589;Laerm;53447;49.272;11.070;2023-02-24T08:30:51;53.19;36.20;67.91;;
66589;Laerm;53447;49.272;11.070;2023-02-24T08:33:17;50.56;36.02;65.22;;
66589;Laerm;53447;49.272;11.070;2023-02-24T08:35:44;43.74;34.95;58.78;;
66589;Laerm;53447;49.272;11.070;2023-02-24T08:38:10;44.18;35.62;60.80;;
66589;Laerm;53447;49.272;11.070;2023-02-24T08:40:39;55.37;37.31;73.71;;
66589;Laerm;53447;49.272;11.070;2023-02-24T08:43:14;51.30;36.55;65.95;;
66589;Laerm;53447;49.272;11.070;2023-02-24T08:45:43;54.15;35.82;72.88;;
66589;Laerm;53447;49.272;11.070;2023-02-24T08:48:10;46.86;36.87;62.72;;
66589;Laerm;53447;49.272;11.070;2023-02-24T08:50:46;52.08;37.37;67.58;;
66589;Laerm;53447;49.272;11.070;2023-02-24T08:53:13;46.68;36.02;64.96;;
66589;Laerm;53447;49.272;11.070;2023-02-24T08:55:44;49.39;37.31;64.19;;
66589;Laerm;53447;49.272;11.070;2023-02-24T08:58:09;50.13;37.58;64.41;;
66589;Laerm;53447;49.272;11.070;2023-02-24T09:00:42;48.64;36.02;63.87;;
66589;Laerm;53447;49.272;11.070;2023-02-24T09:03:16;41.09;35.19;53.37;;
66589;Laerm;53447;49.272;11.070;2023-02-24T09:05:56;43.38;35.19;57.99;;
66589;Laerm;53447;49.272;11.070;2023-02-24T09:08:21;45.79;36.87;60.07;;
66589;Laerm;53447;49.272;11.070;2023-02-24T09:10:48;52.33;37.02;66.70;;
66589;Laerm;53447;49.272;11.070;2023-02-24T09:13:13;51.02;36.03;65.12;;
66589;Laerm;53447;49.272;11.070;2023-02-24T09:15:38;50.44;37.02;67.63;;
66589;Laerm;53447;49.272;11.070;2023-02-24T09:18:05;53.21;39.03;65.17;;
66589;Laerm;53447;49.272;11.070;2023-02-24T09:20:38;55.61;38.31;70.11;;
66589;Laerm;53447;49.272;11.070;2023-02-24T09:23:40;55.78;36.55;73.06;;
66589;Laerm;53447;49.272;11.070;2023-02-24T09:26:10;49.30;36.38;64.84;;
66589;Laerm;53447;49.272;11.070;2023-02-24T09:28:38;42.47;34.95;58.75;;
66589;Laerm;53447;49.272;11.070;2023-02-24T09:31:12;48.71;34.70;75.22;;
66589;Laerm;53447;49.272;11.070;2023-02-24T09:33:41;49.43;36.38;64.27;;
66589;Laerm;53447;49.272;11.070;2023-02-24T09:36:10;51.34;37.17;67.82;;
66589;Laerm;53447;49.272;11.070;2023-02-24T09:39:17;46.81;35.82;62.46;;
66589;Laerm;53447;49.272;11.070;2023-02-24T09:44:36;52.17;38.63;75.20;;
66589;Laerm;53447;49.272;11.070;2023-02-24T09:49:59;49.93;38.31;68.33;;
66589;Laerm;53447;49.272;11.070;2023-02-24T09:52:28;48.54;38.31;66.49;;
66589;Laerm;53447;49.272;11.070;2023-02-24T10:00:43;49.32;38.08;65.07;;
66589;Laerm;53447;49.272;11.070;2023-02-24T10:03:22;51.67;36.71;67.34;;
66589;Laerm;53447;49.272;11.070;2023-02-24T10:06:14;52.93;36.71;69.18;;
66589;Laerm;53447;49.272;11.070;2023-02-24T10:08:47;52.47;36.55;65.50;;
66589;Laerm;53447;49.272;11.070;2023-02-24T10:11:14;53.10;36.02;71.87;;
66589;Laerm;53447;49.272;11.070;2023-02-24T10:13:50;49.98;37.31;67.55;;
66589;Laerm;53447;49.272;11.070;2023-02-24T10:16:18;52.59;34.95;70.79;;
66589;Laerm;53447;49.272;11.070;2023-02-24T10:18:53;47.87;34.44;67.01;;
66589;Laerm;53447;49.272;11.070;2023-02-24T10:30:07;46.84;36.87;62.63;;
66589;Laerm;53447;49.272;11.070;2023-02-24T10:35:14;51.47;36.55;65.19;;
66589;Laerm;53447;49.272;11.070;2023-02-24T10:37:40;49.27;35.82;64.50;;
66589;Laerm;53447;49.272;11.070;2023-02-24T10:40:07;47.26;35.19;66.16;;
66589;Laerm;53447;49.272;11.070;2023-02-24T10:42:37;53.47;36.87;69.02;;
66589;Laerm;53447;49.272;11.070;2023-02-24T10:47:42;46.42;35.82;62.26;;
66589;Laerm;53447;49.272;11.070;2023-02-24T10:53:10;54.00;36.38;69.99;;
66589;Laerm;53447;49.272;11.070;2023-02-24T10:55:50;52.33;36.87;66.59;;
66589;Laerm;53447;49.272;11.070;2023-02-24T10:58:31;43.27;36.38;56.43;;
66589;Laerm;53447;49.272;11.070;2023-02-24T11:01:12;46.50;36.55;67.56;;
66589;Laerm;53447;49.272;11.070;2023-02-24T11:03:49;52.84;38.31;69.59;;
66589;Laerm;53447;49.272;11.070;2023-02-24T11:06:26;52.01;36.38;71.29;;
66589;Laerm;53447;49.272;11.070;2023-02-24T11:09:19;48.74;36.87;65.19;;
66589;Laerm;53447;49.272;11.070;2023-02-24T11:14:53;47.84;37.71;64.87;;
66589;Laerm;53447;49.272;11.070;2023-02-24T11:17:44;51.83;37.45;69.83;;
66589;Laerm;53447;49.272;11.070;2023-02-24T11:20:22;53.42;37.31;70.92;;
66589;Laerm;53447;49.272;11.070;2023-02-24T11:22:48;54.17;37.31;69.71;;
66589;Laerm;53447;49.272;11.070;2023-02-24T11:28:00;48.38;37.02;67.34;;
66589;Laerm;53447;49.272;11.070;2023-02-24T11:38:15;53.62;38.53;71.38;;
66589;Laerm;53447;49.272;11.070;2023-02-24T11:40:45;48.08;36.87;63.64;;
66589;Laerm;53447;49.272;11.070;2023-02-24T11:45:48;52.64;37.02;70.54;;
66589;Laerm;53447;49.272;11.070;2023-02-24T11:53:48;53.09;37.58;70.27;;
66589;Laerm;53447;49.272;11.070;2023-02-24T12:09:10;50.44;37.02;65.16;;
66589;Laerm;53447;49.272;11.070;2023-02-24T12:11:43;53.72;37.31;72.75;;
66589;Laerm;53447;49.272;11.070;2023-02-24T12:19:50;46.83;37.58;60.94;;
66589;Laerm;53447;49.272;11.070;2023-02-24T12:22:16;46.21;37.02;64.11;;
66589;Laerm;53447;49.272;11.070;2023-02-24T12:24:44;51.72;37.17;70.50;;
66589;Laerm;53447;49.272;11.070;2023-02-24T12:29:49;42.36;37.45;54.79;;
66589;Laerm;53447;49.272;11.070;2023-02-24T12:42:31;48.35;38.20;61.91;;
66589;Laerm;53447;49.272;11.070;2023-02-24T12:45:19;50.19;37.58;66.32;;
66589;Laerm;53447;49.272;11.070;2023-02-24T12:53:08;54.07;37.58;74.03;;
66589;Laerm;53447;49.272;11.070;2023-02-24T12:55:51;51.40;37.31;67.09;;
66589;Laerm;53447;49.272;11.070;2023-02-24T12:58:27;48.16;37.17;61.16;;
66589;Laerm;53447;49.272;11.070;2023-02-24T13:11:10;51.64;37.45;65.94;;
66589;Laerm;53447;49.272;11.070;2023-02-24T13:13:43;49.74;38.31;63.31;;
66589;Laerm;53447;49.272;11.070;2023-02-24T13:16:14;45.42;37.58;62.00;;
66589;Laerm;53447;49.272;11.070;2023-02-24T13:18:50;48.59;39.21;61.83;;
66589;Laerm;53447;49.272;11.070;2023-02-24T13:21:18;47.59;37.58;62.87;;
66589;Laerm;53447;49.272;11.070;2023-02-24T13:23:56;48.47;38.20;64.91;;
66589;Laerm;53447;49.272;11.070;2023-02-24T13:26:23;52.48;38.93;70.74;;
66589;Laerm;53447;49.272;11.070;2023-02-24T13:31:24;48.47;38.63;63.13;;
66589;Laerm;53447;49.272;11.070;2023-02-24T13:33:50;46.83;37.96;61.72;;
66589;Laerm;53447;49.272;11.070;2023-02-24T13:36:23;48.45;36.71;63.28;;
66589;Laerm;53447;49.272;11.070;2023-02-24T13:43:57;54.13;36.55;73.52;;
66589;Laerm;53447;49.272;11.070;2023-02-24T13:46:22;51.79;37.45;68.87;;
66589;Laerm;53447;49.272;11.070;2023-02-24T13:51:56;54.88;40.32;76.64;;
66589;Laerm;53447;49.272;11.070;2023-02-24T13:57:17;45.56;37.45;67.17;;
66589;Laerm;53447;49.272;11.070;2023-02-24T14:02:14;52.15;35.82;77.14;;
66589;Laerm;53447;49.272;11.070;2023-02-24T14:04:45;46.81;37.31;71.28;;
66589;Laerm;53447;49.272;11.070;2023-02-24T14:07:14;45.95;37.71;63.30;;
66589;Laerm;53447;49.272;11.070;2023-02-24T14:09:42;53.71;38.08;69.03;;
66589;Laerm;53447;49.272;11.070;2023-02-24T14:12:24;48.92;37.02;66.51;;
66589;Laerm;53447;49.272;11.070;2023-02-24T14:14:50;50.13;39.30;64.66;;
66589;Laerm;53447;49.272;11.070;2023-02-24T14:17:27;54.98;37.45;72.76;;
66589;Laerm;53447;49.272;11.070;2023-02-24T14:22:31;41.60;35.19;55.06;;
66589;Laerm;53447;49.272;11.070;2023-02-24T14:25:05;54.33;37.31;70.61;;
66589;Laerm;53447;49.272;11.070;2023-02-24T14:27:33;51.57;37.71;70.89;;
66589;Laerm;53447;49.272;11.070;2023-02-24T14:29:58;41.38;36.71;54.27;;
66589;Laerm;53447;49.272;11.070;2023-02-24T14:32:27;54.18;37.17;73.15;;
66589;Laerm;53447;49.272;11.070;2023-02-24T14:34:53;50.14;38.53;66.90;;
66589;Laerm;53447;49.272;11.070;2023-02-24T14:37:23;54.17;38.83;66.61;;
66589;Laerm;53447;49.272;11.070;2023-02-24T14:39:54;54.41;39.48;79.80;;
66589;Laerm;53447;49.272;11.070;2023-02-24T14:42:20;47.36;38.73;66.04;;
66589;Laerm;53447;49.272;11.070;2023-02-24T14:44:49;46.67;38.31;60.29;;
66589;Laerm;53447;49.272;11.070;2023-02-24T14:47:16;50.26;38.83;68.24;;
66589;Laerm;53447;49.272;11.070;2023-02-24T14:49:50;42.54;37.84;52.42;;
66589;Laerm;53447;49.272;11.070;2023-02-24T14:52:18;52.70;38.42;71.65;;
66589;Laerm;53447;49.272;11.070;2023-02-24T14:54:54;50.23;39.96;66.06;;
66589;Laerm;53447;49.272;11.070;2023-02-24T14:57:22;52.14;37.96;74.78;;
66589;Laerm;53447;49.272;11.070;2023-02-24T14:59:53;53.16;37.58;71.83;;
66589;Laerm;53447;49.272;11.070;2023-02-24T15:02:21;42.62;37.96;59.68;;
66589;Laerm;53447;49.272;11.070;2023-02-24T15:04:48;41.51;34.36;51.39;;
66589;Laerm;53447;49.272;11.070;2023-02-24T15:07:17;49.67;36.87;69.08;;
66589;Laerm;53447;49.272;11.070;2023-02-24T15:09:43;41.63;35.19;51.93;;
66589;Laerm;53447;49.272;11.070;2023-02-24T15:13:13;48.52;37.58;63.90;;
66589;Laerm;53447;49.272;11.070;2023-02-24T15:15:21;56.32;38.08;73.71;;
66589;Laerm;53447;49.272;11.070;2023-02-24T15:17:53;54.51;37.58;73.63;;
66589;Laerm;53447;49.272;11.070;2023-02-24T15:20:33;42.47;36.71;59.64;;
66589;Laerm;53447;49.272;11.070;2023-02-24T15:22:59;49.30;37.31;67.47;;
66589;Laerm;53447;49.272;11.070;2023-02-24T15:25:26;45.43;36.71;57.64;;
66589;Laerm;53447;49.272;11.070;2023-02-24T15:27:59;49.46;34.70;68.72;;
66589;Laerm;53447;49.272;11.070;2023-02-24T15:30:26;55.74;37.58;65.36;;
66589;Laerm;53447;49.272;11.070;2023-02-24T15:33:03;56.59;38.31;81.53;;
66589;Laerm;53447;49.272;11.070;2023-02-24T15:35:29;55.54;39.30;73.45;;
66589;Laerm;53447;49.272;11.070;2023-02-24T15:37:57;55.42;39.64;76.87;;
66589;Laerm;53447;49.272;11.070;2023-02-24T15:40:23;50.54;39.12;78.16;;
66589;Laerm;53447;49.272;11.070;2023-02-24T15:47:46;45.58;39.21;62.42;;
66589;Laerm;53447;49.272;11.070;2023-02-24T15:50:15;51.54;39.29;69.74;;
66589;Laerm;53447;49.272;11.070;2023-02-24T15:52:40;53.83;39.88;72.06;;
66589;Laerm;53447;49.272;11.070;2023-02-24T15:55:06;52.93;38.42;67.95;;
66589;Laerm;53447;49.272;11.070;2023-02-24T15:57:31;58.62;38.73;72.23;;
66589;Laerm;53447;49.272;11.070;2023-02-24T15:59:57;48.63;38.08;63.09;;
66589;Laerm;53447;49.272;11.070;2023-02-24T16:02:23;50.01;37.96;63.95;;
66589;Laerm;53447;49.272;11.070;2023-02-24T16:04:49;48.86;38.20;62.17;;
66589;Laerm;53447;49.272;11.070;2023-02-24T16:07:15;52.01;40.18;66.82;;
66589;Laerm;53447;49.272;11.070;2023-02-24T16:09:41;53.27;40.79;74.03;;
66589;Laerm;53447;49.272;11.070;2023-02-24T16:12:11;52.59;38.53;72.37;;
66589;Laerm;53447;49.272;11.070;2023-02-24T16:14:37;53.92;39.21;68.29;;
66589;Laerm;53447;49.272;11.070;2023-02-24T16:17:05;52.04;39.39;66.10;;
66589;Laerm;53447;49.272;11.070;2023-02-24T16:19:31;47.67;36.38;62.42;;
66589;Laerm;53447;49.272;11.070;2023-02-24T16:21:56;48.67;37.96;64.51;;
66589;Laerm;53447;49.272;11.070;2023-02-24T16:24:21;51.04;38.53;65.99;;
66589;Laerm;53447;49.272;11.070;2023-02-24T16:26:47;50.94;38.63;66.71;;
66589;Laerm;53447;49.272;11.070;2023-02-24T16:29:13;47.81;38.73;63.18;;
66589;Laerm;53447;49.272;11.070;2023-02-24T16:31:38;49.79;39.12;69.49;;